Time;durP1;ratioP1;P1;durP2;ratioP2;P2;SDS_P1;SDS_P2;PMS_P1;PMS_P2;Temp;Humidity;BMP_temperature;BMP_pressure;BME280_temperature;BME280_humidity;BME280_pressure;Samples;Min_cycle;Max_cycle;Signal;HPM_P1;HPM_P2
2023/08/11 00:01:03;;;;;;;8.00;5.90;;;13.40;94.70;;;13.06;88.56;98477.13;4933544;29;20464;-69
2023/08/11 00:03:30;;;;;;;6.40;5.47;;;13.40;94.40;;;13.00;89.80;98484.25;4957828;28;20811;-69
2023/08/11 00:05:58;;;;;;;6.47;5.73;;;13.40;95.00;;;13.04;88.90;98474.63;4955258;28;20454;-68
2023/08/11 00:08:25;;;;;;;7.00;6.10;;;13.40;94.40;;;12.98;89.37;98470.09;4939977;28;20459;-68
2023/08/11 00:10:53;;;;;;;7.27;5.80;;;13.40;94.60;;;12.88;89.97;98472.44;4937043;29;20458;-70
2023/08/11 00:13:20;;;;;;;5.80;5.20;;;13.30;94.80;;;12.82;90.65;98471.44;4944246;28;20462;-69
2023/08/11 00:15:47;;;;;;;6.80;6.10;;;13.20;95.40;;;12.95;89.51;98459.66;4948618;28;21006;-70
2023/08/11 00:18:15;;;;;;;8.07;6.17;;;13.20;95.50;;;12.86;89.48;98464.50;4933770;29;20459;-71
2023/08/11 00:20:43;;;;;;;7.73;5.77;;;13.30;95.20;;;12.91;89.21;98463.84;4940288;29;20459;-71
2023/08/11 00:23:11;;;;;;;6.37;5.80;;;13.30;94.90;;;12.37;89.25;98387.50;4966867;28;20596;-69
2023/08/11 00:25:38;;;;;;;6.73;5.83;;;13.30;94.60;;;12.81;89.61;98471.63;4933710;29;20466;-69
2023/08/11 00:28:06;;;;;;;6.53;5.20;;;13.30;94.60;;;12.84;88.92;98465.81;4948060;29;20454;-69
2023/08/11 00:30:33;;;;;;;6.80;6.07;;;13.30;94.20;;;12.83;88.55;98478.50;4945023;29;20461;-70
2023/08/11 00:33:00;;;;;;;17.23;6.70;;;13.30;94.10;;;12.86;88.36;98482.69;4950715;29;20578;-69
2023/08/11 00:35:29;;;;;;;7.00;5.70;;;13.30;93.90;;;12.79;88.46;98476.44;4934379;28;20488;-68
2023/08/11 00:37:57;;;;;;;7.00;6.30;;;13.20;94.00;;;12.84;88.28;98479.34;4941926;29;20953;-68
2023/08/11 00:40:26;;;;;;;8.83;6.90;;;13.30;93.80;;;12.82;88.04;98493.13;4950366;28;20937;-67
2023/08/11 00:42:53;;;;;;;11.20;7.40;;;13.20;93.50;;;12.84;87.75;98488.31;4937294;29;20560;-67
2023/08/11 00:45:20;;;;;;;7.67;6.13;;;13.20;93.70;;;12.69;88.61;98487.78;4938716;29;20498;-70
2023/08/11 00:47:48;;;;;;;8.63;6.73;;;13.10;93.70;;;12.62;88.90;98490.53;4933438;29;20462;-69
2023/08/11 00:50:16;;;;;;;9.60;6.43;;;13.00;94.00;;;12.64;89.02;98491.13;4931975;29;20458;-71
2023/08/11 00:52:45;;;;;;;11.90;6.50;;;12.90;94.60;;;12.73;89.12;98495.25;4932807;29;20455;-70
2023/08/11 00:55:14;;;;;;;17.80;6.87;;;13.00;95.30;;;12.30;88.50;98420.88;4963115;28;20554;-69
2023/08/11 00:57:42;;;;;;;11.20;7.07;;;13.00;94.90;;;12.67;89.37;98485.31;4954899;28;20479;-69
2023/08/11 01:00:13;;;;;;;13.87;7.10;;;12.90;95.40;;;12.58;89.32;98478.47;4933262;29;20462;-69
2023/08/11 01:02:42;;;;;;;11.00;7.57;;;12.90;95.40;;;12.62;89.01;98487.81;4933505;29;20462;-70
2023/08/11 01:05:10;;;;;;;10.53;6.90;;;12.90;95.20;;;12.55;89.52;98489.75;4951476;28;20918;-68
2023/08/11 01:07:46;;;;;;;8.63;6.90;;;12.80;95.50;;;12.50;90.34;98489.53;4946914;29;20793;-69
2023/08/11 01:10:27;;;;;;;12.47;7.20;;;12.80;96.00;;;12.49;90.35;98487.88;4935054;29;20442;-68
2023/08/11 01:13:13;;;;;;;18.23;7.10;;;12.70;95.90;;;12.40;90.57;98485.44;4934854;29;20546;-69
2023/08/11 01:15:42;;;;;;;9.33;6.70;;;12.60;96.30;;;12.39;90.96;98494.63;4934931;29;20455;-70
2023/08/11 01:18:10;;;;;;;12.40;6.90;;;12.60;96.70;;;12.34;91.03;98491.69;4944254;28;20465;-70
2023/08/11 01:20:38;;;;;;;8.50;6.80;;;12.60;96.80;;;12.32;90.83;98488.38;4947924;28;20451;-69
2023/08/11 01:23:07;;;;;;;13.30;6.97;;;12.70;96.30;;;12.03;91.39;98469.75;4934696;29;20457;-69
2023/08/11 01:25:37;;;;;;;10.30;7.20;;;12.70;96.10;;;12.28;91.56;98490.72;4946899;29;20450;-67
2023/08/11 01:28:05;;;;;;;8.70;6.40;;;12.70;96.10;;;12.39;90.53;98458.53;4943146;29;20465;-69
2023/08/11 01:30:35;;;;;;;8.50;6.00;;;12.70;96.20;;;12.36;89.48;98495.06;4952026;28;20467;-69
2023/08/11 01:33:02;;;;;;;8.50;6.40;;;12.70;95.90;;;12.30;90.39;98491.31;4936541;28;20865;-70
2023/08/11 01:35:29;;;;;;;8.93;6.43;;;12.60;95.50;;;12.22;90.91;98482.63;4950375;28;20466;-69
2023/08/11 01:37:56;;;;;;;12.20;6.73;;;12.60;95.70;;;12.22;90.39;98482.63;4940950;29;20477;-69
2023/08/11 01:40:24;;;;;;;8.27;6.60;;;12.60;95.70;;;12.19;90.75;98495.50;4956691;28;20450;-68
2023/08/11 01:42:53;;;;;;;7.23;6.53;;;12.60;95.70;;;12.14;91.02;98484.50;4939187;29;20460;-69
2023/08/11 01:45:20;;;;;;;11.50;6.50;;;12.50;95.70;;;12.14;91.25;98489.91;4950532;28;20453;-68
2023/08/11 01:47:48;;;;;;;7.00;5.97;;;12.50;96.00;;;12.09;90.82;98495.16;4946913;28;20548;-68
2023/08/11 01:50:16;;;;;;;11.27;7.37;;;12.50;95.60;;;12.05;91.20;98488.47;4932784;29;20550;-68
2023/08/11 01:52:47;;;;;;;8.63;5.70;;;12.40;95.90;;;12.05;90.68;98488.47;4931041;29;20465;-68
2023/08/11 01:55:15;;;;;;;9.33;5.50;;;12.50;95.90;;;11.98;90.96;98482.22;4932899;29;20585;-69
2023/08/11 01:57:42;;;;;;;8.33;6.33;;;12.40;95.60;;;11.98;91.34;98487.66;4932873;29;20535;-68
2023/08/11 02:00:13;;;;;;;6.07;5.40;;;12.40;95.90;;;11.97;91.26;98491.41;4947453;28;20458;-68
2023/08/11 02:02:42;;;;;;;6.00;5.50;;;12.30;95.90;;;11.96;91.24;98485.16;4942950;28;20800;-68
2023/08/11 02:05:12;;;;;;;6.30;5.47;;;12.30;95.90;;;11.97;91.14;98480.56;4951612;28;20515;-69
2023/08/11 02:07:39;;;;;;;6.70;5.60;;;12.30;96.10;;;11.93;91.28;98487.47;4963975;28;20476;-69
2023/08/11 02:10:08;;;;;;;7.63;6.00;;;12.30;95.60;;;12.03;90.64;98482.44;4933991;29;20462;-68
2023/08/11 02:12:37;;;;;;;7.37;5.90;;;12.30;96.20;;;12.02;90.16;98478.06;4937620;29;20470;-68
2023/08/11 02:15:05;;;;;;;6.80;6.10;;;12.20;96.20;;;11.99;90.34;98467.66;4949114;29;20458;-69
2023/08/11 02:17:34;;;;;;;6.67;5.43;;;12.30;96.50;;;11.61;90.17;98407.81;4941557;29;20506;-69
2023/08/11 02:20:12;;;;;;;5.77;5.17;;;12.20;96.20;;;12.01;89.84;98477.25;4951358;29;20465;-68
2023/08/11 02:22:39;;;;;;;6.83;5.13;;;12.20;96.00;;;12.03;90.03;98480.59;4946278;29;20468;-69
2023/08/11 02:25:09;;;;;;;9.63;5.43;;;12.20;96.20;;;11.98;89.99;98485.78;4943752;28;20454;-69
2023/08/11 02:27:36;;;;;;;5.93;5.40;;;12.20;96.10;;;11.90;90.28;98486.00;4935935;29;20469;-68
2023/08/11 02:30:06;;;;;;;6.10;5.43;;;12.20;95.80;;;11.83;90.86;98486.03;4942235;29;20947;-69
2023/08/11 02:32:34;;;;;;;7.57;5.40;;;12.10;96.30;;;11.74;90.93;98481.88;4934735;29;21038;-67
2023/08/11 02:35:02;;;;;;;6.73;6.10;;;12.10;96.10;;;11.72;91.06;98479.41;4952081;28;20459;-70
2023/08/11 02:37:29;;;;;;;8.20;6.10;;;12.10;96.30;;;11.75;90.83;98483.53;4943244;29;20858;-68
2023/08/11 02:39:56;;;;;;;5.70;5.20;;;12.00;96.50;;;11.76;90.71;98488.75;4948527;29;20457;-68
2023/08/11 02:42:25;;;;;;;6.83;5.50;;;12.00;96.40;;;11.75;91.22;98486.25;4941350;29;20464;-68
2023/08/11 02:44:53;;;;;;;6.03;5.10;;;12.00;96.50;;;11.73;91.14;98481.06;4951281;28;20467;-68
2023/08/11 02:47:20;;;;;;;6.50;5.90;;;12.00;96.40;;;11.71;90.90;98476.88;4935693;29;20537;-69
2023/08/11 02:49:49;;;;;;;6.90;6.30;;;12.00;96.50;;;11.69;90.74;98487.94;4936555;29;20473;-70
2023/08/11 02:52:16;;;;;;;6.10;5.60;;;12.00;96.10;;;11.68;90.65;98477.31;4933411;29;20450;-67
2023/08/11 02:54:44;;;;;;;6.10;5.50;;;12.00;96.50;;;11.66;91.49;98479.41;4939844;29;20550;-68
2023/08/11 02:57:11;;;;;;;7.73;5.53;;;11.90;96.70;;;11.11;91.75;98402.06;4951205;28;20496;-68
2023/08/11 02:59:38;;;;;;;6.43;5.77;;;11.90;96.70;;;11.62;91.36;98481.69;4939319;29;20470;-68
2023/08/11 03:02:07;;;;;;;7.17;6.57;;;11.90;96.80;;;11.66;91.31;98479.41;4937038;29;20455;-69
2023/08/11 03:04:36;;;;;;;6.13;5.53;;;11.90;96.80;;;11.55;91.04;98479.00;4946730;28;20481;-71
2023/08/11 03:07:06;;;;;;;8.63;6.30;;;11.90;96.40;;;11.57;91.29;98485.03;4943285;28;20471;-68
2023/08/11 03:09:33;;;;;;;6.07;5.53;;;11.90;96.60;;;11.58;91.45;98485.88;4954556;28;20897;-69
2023/08/11 03:12:01;;;;;;;5.87;5.40;;;11.80;96.90;;;11.52;91.59;98490.25;4959093;28;20824;-68
2023/08/11 03:14:28;;;;;;;6.07;5.50;;;11.80;97.10;;;11.52;91.73;98482.13;4935701;29;20966;-69
2023/08/11 03:16:55;;;;;;;6.30;5.70;;;11.80;97.20;;;11.51;91.55;98485.03;4935153;29;20481;-69
2023/08/11 03:19:22;;;;;;;5.30;4.73;;;11.80;97.00;;;11.44;92.01;98487.75;4934837;29;20554;-71
2023/08/11 03:21:49;;;;;;;6.17;5.70;;;11.70;97.00;;;11.44;91.41;98493.16;4934275;29;20608;-70
2023/08/11 03:24:18;;;;;;;6.00;5.07;;;11.70;97.00;;;11.38;92.01;98481.31;4944418;28;20456;-69
2023/08/11 03:26:45;;;;;;;6.63;6.03;;;11.70;97.10;;;11.39;91.99;98491.09;4953039;28;20450;-69
2023/08/11 03:29:13;;;;;;;5.90;5.40;;;11.70;97.30;;;11.43;91.20;98483.38;4953597;28;20998;-69
2023/08/11 03:31:40;;;;;;;5.97;5.37;;;11.70;97.20;;;11.37;91.69;98486.94;4963960;28;20454;-69
2023/08/11 03:34:07;;;;;;;5.53;5.13;;;11.60;97.10;;;11.28;91.93;98484.44;4940496;29;20935;-74
2023/08/11 03:36:35;;;;;;;5.80;5.30;;;11.60;97.60;;;11.25;92.43;98495.66;4942365;29;20513;-71
2023/08/11 03:39:02;;;;;;;6.03;5.50;;;11.60;98.10;;;11.32;92.48;98491.09;4949129;28;20484;-69
2023/08/11 03:41:31;;;;;;;5.87;5.37;;;11.60;98.00;;;11.29;92.28;98496.91;4948531;28;20458;-68
2023/08/11 03:43:58;;;;;;;6.13;5.47;;;11.60;97.80;;;11.32;91.92;98495.66;4940496;29;20508;-68
2023/08/11 03:46:25;;;;;;;6.17;5.57;;;11.60;97.80;;;11.29;92.82;98496.91;4935665;29;20461;-69
2023/08/11 03:48:52;;;;;;;5.60;4.93;;;11.60;97.90;;;11.33;92.26;98502.75;4934470;29;20467;-68
2023/08/11 03:51:19;;;;;;;5.70;5.10;;;11.60;98.10;;;11.31;92.27;98504.81;4933684;29;20454;-69
2023/08/11 03:53:47;;;;;;;6.00;5.50;;;11.50;98.30;;;11.41;91.90;98505.25;4934307;29;20462;-67
2023/08/11 03:56:14;;;;;;;7.47;5.40;;;11.60;97.90;;;11.31;92.26;98505.66;4934342;29;20455;-70
2023/08/11 03:58:42;;;;;;;6.40;5.80;;;11.60;97.70;;;11.32;92.55;98507.34;4948910;28;20975;-69
2023/08/11 04:01:09;;;;;;;5.90;4.97;;;11.60;98.00;;;11.39;92.11;98510.03;4940555;29;20464;-69
2023/08/11 04:03:36;;;;;;;6.67;6.07;;;11.60;97.70;;;11.37;92.10;98505.88;4944941;28;20446;-69
2023/08/11 04:06:04;;;;;;;5.90;5.40;;;11.60;97.70;;;10.94;92.11;98443.03;4948620;28;20476;-68
2023/08/11 04:08:31;;;;;;;5.33;4.93;;;11.60;97.40;;;11.32;92.25;98512.75;4941956;29;20465;-68
2023/08/11 04:10:59;;;;;;;6.30;5.80;;;11.60;97.10;;;11.41;91.61;98507.09;4941419;29;20454;-69
2023/08/11 04:13:26;;;;;;;6.10;5.40;;;11.70;97.10;;;11.39;91.65;98509.19;4933962;29;20509;-71
2023/08/11 04:15:54;;;;;;;6.70;5.40;;;11.70;96.80;;;11.44;91.13;98514.81;4933859;29;20529;-68
2023/08/11 04:18:22;;;;;;;9.03;5.90;;;11.70;96.30;;;11.36;91.91;98515.03;4941568;29;20539;-69
2023/08/11 04:20:49;;;;;;;5.97;5.47;;;11.70;96.50;;;11.43;90.43;98515.84;4961920;28;20546;-69
2023/08/11 04:23:16;;;;;;;5.60;5.10;;;11.70;96.30;;;11.48;90.59;98513.38;4941182;29;20450;-68
2023/08/11 04:25:43;;;;;;;5.93;5.43;;;11.70;96.40;;;11.53;89.98;98507.31;4948917;28;20470;-68
2023/08/11 04:28:10;;;;;;;5.63;5.13;;;11.80;95.90;;;11.26;90.67;98512.75;4948150;28;20924;-71
2023/08/11 04:30:38;;;;;;;5.47;5.00;;;11.80;95.40;;;11.59;90.40;98501.88;4943251;29;20464;-69
2023/08/11 04:33:07;;;;;;;6.47;5.37;;;11.90;95.70;;;12.36;87.32;98511.31;4936301;29;20489;-69
2023/08/11 04:35:34;;;;;;;5.77;5.27;;;12.50;94.40;;;12.84;82.86;98511.91;4943190;28;20468;-71
2023/08/11 04:38:02;;;;;;;5.60;5.10;;;13.30;90.80;;;13.19;80.64;98514.16;4935369;28;21167;-69
2023/08/11 04:40:29;;;;;;;5.70;4.93;;;14.00;88.20;;;13.53;78.71;98509.31;4931622;29;20457;-70
2023/08/11 04:42:56;;;;;;;5.60;5.00;;;14.40;86.80;;;13.76;76.95;98516.00;4937280;29;20523;-68
2023/08/11 04:45:24;;;;;;;5.03;4.63;;;14.80;85.40;;;14.00;76.13;98506.13;4933609;29;20458;-67
2023/08/11 04:47:51;;;;;;;4.90;4.50;;;15.10;84.60;;;14.46;73.90;98505.81;4948459;28;20969;-68
2023/08/11 04:50:20;;;;;;;6.60;4.20;;;15.40;83.60;;;14.53;73.23;98511.97;4941346;29;20457;-69
2023/08/11 04:52:47;;;;;;;5.60;5.10;;;15.60;82.80;;;15.14;70.81;98513.88;4952310;28;20484;-68
2023/08/11 04:55:15;;;;;;;4.90;4.50;;;15.90;82.20;;;15.58;68.69;98505.41;4948704;29;20446;-68
2023/08/11 04:57:42;;;;;;;4.87;4.43;;;16.30;81.30;;;15.89;67.42;98510.75;4939243;28;20488;-68
2023/08/11 05:00:13;;;;;;;4.73;4.33;;;16.60;80.40;;;16.56;64.68;98509.44;4938177;28;20487;-69
2023/08/11 05:02:42;;;;;;;5.23;4.73;;;17.00;79.20;;;16.09;65.49;98505.75;4943273;28;20459;-71
2023/08/11 05:05:09;;;;;;;4.90;3.77;;;17.00;78.40;;;16.68;63.48;98512.09;4942367;29;20576;-69
2023/08/11 05:07:39;;;;;;;4.40;4.00;;;17.20;78.10;;;16.93;62.75;98506.31;4944940;29;20829;-69
2023/08/11 05:10:08;;;;;;;4.63;4.23;;;17.50;77.40;;;17.49;60.57;98500.16;4941919;29;20462;-69
2023/08/11 05:12:35;;;;;;;4.90;4.50;;;18.00;76.40;;;17.70;59.71;98505.97;4932373;29;20452;-71
2023/08/11 05:15:03;;;;;;;4.70;4.23;;;18.40;75.30;;;18.41;57.62;98505.28;4945924;29;20492;-70
2023/08/11 05:17:30;;;;;;;5.63;4.80;;;19.00;74.10;;;18.41;56.95;98516.22;4940156;29;21631;-67
2023/08/11 05:19:58;;;;;;;5.53;4.90;;;19.20;72.50;;;17.36;60.07;98525.09;4947448;28;20551;-69
2023/08/11 05:22:25;;;;;;;4.40;4.00;;;18.90;72.40;;;16.73;61.49;98514.97;4954934;28;20490;-69
2023/08/11 05:24:54;;;;;;;5.23;4.73;;;18.30;72.40;;;17.10;61.25;98522.75;4947702;29;20451;-69
2023/08/11 05:27:21;;;;;;;5.00;4.60;;;18.10;73.40;;;16.93;61.64;98519.97;4947899;28;20513;-68
2023/08/11 05:29:49;;;;;;;4.43;3.53;;;18.20;73.20;;;17.46;60.56;98525.25;4948967;29;20464;-69
2023/08/11 05:32:16;;;;;;;4.20;3.83;;;18.40;73.40;;;16.82;61.06;98452.63;4935607;29;20536;-69
2023/08/11 05:34:44;;;;;;;5.20;4.80;;;18.30;73.00;;;17.77;59.13;98524.94;4937967;29;20456;-68
2023/08/11 05:37:12;;;;;;;6.00;4.53;;;18.60;72.60;;;18.04;58.48;98514.13;4936769;29;20991;-68
2023/08/11 05:39:39;;;;;;;6.70;3.90;;;18.80;72.30;;;17.62;59.39;98528.22;4932823;29;20457;-68
2023/08/11 05:42:09;;;;;;;4.30;3.87;;;18.70;71.60;;;18.03;58.20;98515.22;4933686;29;20537;-69
2023/08/11 05:44:36;;;;;;;4.13;3.73;;;19.00;71.50;;;17.42;59.90;98521.38;4940055;29;20478;-69
2023/08/11 05:47:04;;;;;;;4.00;3.70;;;18.90;71.10;;;18.09;57.67;98510.66;4931552;29;20492;-68
2023/08/11 05:49:31;;;;;;;4.30;3.90;;;19.10;70.70;;;18.17;57.32;98503.91;4935243;29;20970;-69
2023/08/11 05:51:58;;;;;;;4.30;3.90;;;19.20;70.40;;;18.96;55.42;98519.03;4946252;29;20953;-69
2023/08/11 05:54:25;;;;;;;4.07;3.67;;;19.60;70.00;;;19.22;54.25;98513.00;4953334;29;20456;-68
2023/08/11 05:56:54;;;;;;;4.10;3.70;;;20.10;68.70;;;18.38;55.88;98511.28;4947596;29;20814;-70
2023/08/11 05:59:23;;;;;;;4.30;3.90;;;19.80;68.20;;;18.90;54.59;98517.34;4951926;28;20558;-68
2023/08/11 06:01:50;;;;;;;5.03;3.93;;;20.10;67.80;;;19.85;52.34;98514.31;4948243;29;20866;-68
2023/08/11 06:04:17;;;;;;;6.87;4.77;;;20.60;67.20;;;19.60;53.54;98519.34;4946562;29;20494;-69
2023/08/11 06:06:45;;;;;;;5.00;4.40;;;20.50;67.40;;;18.44;55.87;98520.38;4937316;29;20962;-69
2023/08/11 06:09:12;;;;;;;6.90;4.37;;;19.50;67.50;;;17.13;59.63;98524.16;4942074;29;20513;-70
2023/08/11 06:11:40;;;;;;;5.53;3.90;;;18.20;69.30;;;16.31;62.39;98513.31;4943200;28;20813;-68
2023/08/11 06:14:07;;;;;;;5.40;4.90;;;17.20;71.30;;;16.47;64.63;98516.38;4936195;29;20448;-69
2023/08/11 06:16:35;;;;;;;8.17;5.37;;;16.80;74.40;;;16.49;64.68;98511.50;4938138;29;20833;-69
2023/08/11 06:19:03;;;;;;;4.90;4.50;;;16.80;74.60;;;16.34;63.53;98506.53;4940347;29;20493;-70
2023/08/11 06:21:30;;;;;;;4.97;4.47;;;16.80;74.30;;;16.03;64.50;98523.09;4935189;29;20462;-70
2023/08/11 06:23:58;;;;;;;4.40;4.00;;;16.50;74.80;;;16.29;64.52;98520.88;4937035;29;20462;-68
2023/08/11 06:26:25;;;;;;;5.03;4.23;;;16.50;75.70;;;15.98;64.67;98514.78;4935670;29;20469;-70
2023/08/11 06:28:52;;;;;;;4.17;3.87;;;16.40;75.40;;;16.22;64.02;98520.22;4935956;29;20467;-69
2023/08/11 06:31:20;;;;;;;4.20;3.80;;;16.50;75.90;;;16.41;64.56;98529.88;4944993;29;20457;-70
2023/08/11 06:33:49;;;;;;;7.30;4.80;;;16.60;76.10;;;16.59;63.95;98525.31;4943168;29;20925;-69
2023/08/11 06:36:16;;;;;;;7.20;3.77;;;16.80;75.80;;;16.80;64.11;98521.09;4940405;29;20456;-69
2023/08/11 06:38:44;;;;;;;4.20;3.80;;;17.00;76.10;;;16.93;62.81;98521.84;4950336;28;20633;-69
2023/08/11 06:41:11;;;;;;;4.93;3.40;;;17.20;75.70;;;16.79;62.89;98519.44;4936655;29;20827;-69
2023/08/11 06:43:39;;;;;;;5.07;4.07;;;17.10;75.30;;;16.54;62.62;98446.13;4938768;29;20490;-69
2023/08/11 06:46:07;;;;;;;4.43;3.87;;;17.20;75.60;;;16.98;62.27;98521.94;4941620;29;20503;-70
2023/08/11 06:48:34;;;;;;;5.40;3.93;;;17.30;75.20;;;17.12;62.68;98534.25;4934250;29;20464;-68
2023/08/11 06:51:03;;;;;;;4.23;3.23;;;17.30;75.60;;;17.52;61.98;98535.22;4946642;28;20457;-69
2023/08/11 06:53:30;;;;;;;5.70;4.43;;;17.60;75.80;;;17.73;60.72;98532.78;4954536;28;20460;-69
2023/08/11 06:55:57;;;;;;;4.87;4.00;;;17.80;75.30;;;17.72;60.64;98533.03;4949702;29;20453;-69
2023/08/11 06:58:25;;;;;;;4.23;3.80;;;17.90;74.80;;;17.65;60.90;98530.47;4936808;28;20484;-70
2023/08/11 07:00:51;;;;;;;4.20;3.13;;;18.00;74.90;;;17.64;60.78;98542.47;4954614;28;20462;-68
2023/08/11 07:03:18;;;;;;;4.40;3.37;;;17.90;74.70;;;17.71;61.23;98534.94;4953635;28;20511;-68
2023/08/11 07:05:45;;;;;;;4.80;3.60;;;18.00;75.00;;;17.68;60.95;98540.91;4940147;29;20462;-68
2023/08/11 07:08:14;;;;;;;4.20;3.80;;;17.90;74.70;;;17.92;61.32;98540.72;4942136;29;20921;-70
2023/08/11 07:10:42;;;;;;;4.40;3.80;;;18.00;75.50;;;18.27;60.31;98545.03;4947071;29;20508;-70
2023/08/11 07:13:09;;;;;;;4.20;3.80;;;18.30;75.30;;;18.21;59.84;98535.97;4953587;28;20902;-70
2023/08/11 07:15:40;;;;;;;4.10;3.70;;;18.40;74.60;;;18.20;59.93;98528.00;4934873;29;20461;-69
2023/08/11 07:18:08;;;;;;;4.17;3.87;;;18.40;74.50;;;18.38;59.78;98527.69;4948835;28;20995;-69
2023/08/11 07:20:35;;;;;;;4.50;3.67;;;18.50;74.70;;;18.57;59.41;98538.31;4943054;28;20450;-68
2023/08/11 07:23:03;;;;;;;4.73;3.90;;;18.70;74.60;;;18.56;59.62;98533.91;4934498;29;20458;-69
2023/08/11 07:25:31;;;;;;;3.40;3.10;;;18.80;74.40;;;18.87;59.15;98533.44;4953214;28;20819;-70
2023/08/11 07:28:00;;;;;;;4.80;3.60;;;19.00;74.90;;;18.88;59.01;98529.63;4952616;29;20451;-70
2023/08/11 07:30:29;;;;;;;3.40;3.20;;;19.00;74.50;;;19.08;58.42;98534.53;4966864;28;20461;-69
2023/08/11 07:32:57;;;;;;;5.10;3.07;;;19.20;74.30;;;19.16;57.83;98542.25;4949692;29;20490;-68
2023/08/11 07:35:24;;;;;;;5.40;3.80;;;19.30;73.90;;;19.00;57.87;98537.72;4941988;29;20516;-70
2023/08/11 07:37:51;;;;;;;3.20;2.90;;;19.30;73.40;;;19.48;57.12;98538.69;4933055;29;20849;-69
2023/08/11 07:40:19;;;;;;;4.13;3.73;;;19.50;73.70;;;19.67;56.99;98541.88;4934439;29;20456;-69
2023/08/11 07:42:48;;;;;;;2.97;2.77;;;19.70;74.00;;;19.77;56.41;98545.78;4956450;28;20463;-71
2023/08/11 07:45:15;;;;;;;4.93;3.00;;;19.80;73.10;;;19.94;56.65;98534.69;4948920;28;20473;-68
2023/08/11 07:47:43;;;;;;;4.43;4.03;;;20.00;73.40;;;19.70;56.50;98551.50;4934494;29;20466;-69
2023/08/11 07:50:11;;;;;;;5.00;3.70;;;20.00;72.80;;;19.83;56.50;98555.69;4936082;29;20515;-71
2023/08/11 07:52:38;;;;;;;6.60;3.70;;;20.00;72.80;;;20.15;55.78;98551.28;4935584;29;20460;-70
2023/08/11 07:55:06;;;;;;;3.27;2.97;;;20.10;73.00;;;20.23;55.94;98550.75;4938250;28;20451;-70
2023/08/11 07:57:33;;;;;;;4.37;3.20;;;20.20;72.90;;;20.27;54.56;98549.16;4934204;29;20464;-69
2023/08/11 08:00:04;;;;;;;4.13;3.30;;;20.40;71.80;;;20.48;54.80;98549.25;4941608;28;20480;-71
2023/08/11 08:02:31;;;;;;;3.20;2.90;;;20.50;72.00;;;20.48;54.68;98543.75;4940167;29;20825;-69
2023/08/11 08:04:59;;;;;;;9.33;5.00;;;20.60;71.90;;;20.42;54.60;98533.84;4948805;28;20456;-69
2023/08/11 08:07:26;;;;;;;4.03;3.50;;;20.60;71.70;;;20.74;54.46;98538.38;4934014;29;20458;-70
2023/08/11 08:09:53;;;;;;;3.27;2.97;;;20.70;71.90;;;20.74;53.60;98549.34;4943246;29;20450;-70
2023/08/11 08:12:20;;;;;;;3.03;2.80;;;20.90;71.30;;;20.98;53.38;98546.97;4936479;28;20973;-71
2023/08/11 08:14:48;;;;;;;5.27;3.60;;;21.00;71.00;;;20.74;54.12;98560.31;4946556;29;20456;-70
2023/08/11 08:17:16;;;;;;;5.70;3.60;;;20.90;70.90;;;20.93;53.52;98556.00;4951738;28;20471;-69
2023/08/11 08:19:43;;;;;;;3.33;3.10;;;21.10;70.90;;;21.07;52.74;98552.75;4941585;29;20551;-68
2023/08/11 08:22:11;;;;;;;3.57;3.13;;;21.10;70.10;;;21.23;51.98;98548.94;4931825;29;20457;-70
2023/08/11 08:24:38;;;;;;;4.00;3.13;;;21.30;69.80;;;21.46;52.28;98562.41;4947842;29;20522;-69
2023/08/11 08:27:06;;;;;;;4.03;2.60;;;21.40;70.10;;;21.48;50.86;98555.56;4951755;29;20482;-69
2023/08/11 08:29:34;;;;;;;3.37;3.10;;;21.60;68.70;;;21.67;50.26;98562.44;4946421;28;20456;-69
2023/08/11 08:32:01;;;;;;;3.63;3.23;;;21.70;68.10;;;21.84;50.20;98559.41;4950557;29;20458;-69
2023/08/11 08:34:30;;;;;;;3.63;3.13;;;21.80;68.10;;;21.97;50.00;98556.09;4967362;28;20473;-69
2023/08/11 08:36:57;;;;;;;2.67;2.47;;;22.00;68.10;;;21.81;49.69;98560.78;4943925;28;20466;-69
2023/08/11 08:39:24;;;;;;;3.83;3.40;;;22.10;67.30;;;21.64;50.39;98561.84;4934873;29;20482;-71
2023/08/11 08:41:53;;;;;;;3.93;3.00;;;21.90;67.60;;;21.95;49.48;98552.81;4942587;29;21030;-69
2023/08/11 08:44:21;;;;;;;3.30;3.10;;;21.90;66.80;;;22.12;49.37;98554.41;4936082;29;20463;-68
2023/08/11 08:46:52;;;;;;;3.10;2.80;;;22.10;67.00;;;22.33;49.08;98553.25;4935115;29;20461;-69
2023/08/11 08:49:24;;;;;;;3.33;2.73;;;22.30;67.10;;;22.49;48.55;98561.47;4948936;29;20450;-70
2023/08/11 08:51:53;;;;;;;3.60;3.20;;;22.40;66.70;;;22.78;48.62;98558.06;4932415;29;20458;-71
2023/08/11 08:54:21;;;;;;;3.20;2.50;;;22.70;66.90;;;22.84;47.14;98540.41;4946736;28;20509;-71
2023/08/11 08:56:49;;;;;;;3.70;3.00;;;22.80;65.50;;;22.91;46.64;98551.94;4938637;29;20494;-69
2023/08/11 08:59:16;;;;;;;3.73;2.87;;;22.80;64.70;;;23.12;47.01;98545.47;4933574;29;20478;-70
2023/08/11 09:01:44;;;;;;;2.90;2.70;;;22.90;65.10;;;23.20;46.13;98553.97;4944661;29;21147;-72
2023/08/11 09:04:12;;;;;;;3.60;2.87;;;23.10;64.50;;;23.24;46.60;98543.19;4944867;28;20459;-69
2023/08/11 09:06:39;;;;;;;3.10;2.80;;;23.20;64.60;;;23.37;45.58;98536.22;4943162;29;20453;-70
2023/08/11 09:09:10;;;;;;;3.40;3.20;;;23.30;63.90;;;23.51;46.07;98536.41;4946661;29;20462;-69
2023/08/11 09:11:38;;;;;;;3.10;2.80;;;23.40;64.10;;;23.68;45.01;98541.50;4963481;28;20459;-69
2023/08/11 09:14:06;;;;;;;3.20;2.90;;;23.50;63.60;;;23.68;45.48;98541.50;4938552;29;20453;-68
2023/08/11 09:16:35;;;;;;;3.40;3.10;;;23.60;63.30;;;23.83;45.42;98547.97;4939980;29;20966;-70
2023/08/11 09:19:04;;;;;;;2.43;2.33;;;23.70;63.30;;;23.87;44.26;98549.03;4934662;29;20570;-70
2023/08/11 09:21:32;;;;;;;3.20;2.90;;;23.80;62.30;;;24.08;43.81;98538.66;4933318;29;20510;-70
2023/08/11 09:23:59;;;;;;;2.97;2.67;;;23.80;61.80;;;24.18;43.71;98546.00;4944760;29;20483;-70
2023/08/11 09:26:28;;;;;;;3.73;3.43;;;24.00;61.50;;;24.12;43.15;98539.72;4954370;28;20456;-70
2023/08/11 09:28:56;;;;;;;3.10;2.90;;;23.90;60.70;;;24.16;42.67;98529.75;4951609;28;20943;-68
2023/08/11 09:31:24;;;;;;;2.90;2.70;;;24.00;60.50;;;24.10;42.69;98530.91;4966367;28;20501;-68
2023/08/11 09:33:53;;;;;;;2.80;2.60;;;23.90;60.30;;;24.18;43.06;98537.72;4939097;29;20487;-69
2023/08/11 09:36:21;;;;;;;2.83;2.63;;;23.90;60.60;;;24.36;43.14;98532.56;4936788;29;20867;-71
2023/08/11 09:38:49;;;;;;;3.80;2.77;;;24.10;60.90;;;24.43;42.62;98533.84;4949651;28;20528;-70
2023/08/11 09:41:17;;;;;;;4.80;3.00;;;24.20;60.00;;;24.48;42.22;98530.19;4945892;28;20467;-71
2023/08/11 09:43:49;;;;;;;2.77;2.57;;;24.30;59.90;;;24.57;42.08;98533.94;4944902;29;20485;-70
2023/08/11 09:46:17;;;;;;;2.40;2.20;;;24.40;59.30;;;24.45;41.67;98522.50;4950562;29;20461;-69
2023/08/11 09:48:44;;;;;;;2.50;2.30;;;24.30;58.80;;;24.61;42.06;98526.72;4963405;28;20461;-69
2023/08/11 09:51:12;;;;;;;2.23;2.03;;;24.40;59.40;;;24.81;41.46;98524.84;4953332;29;20944;-70
2023/08/11 09:53:41;;;;;;;3.30;2.60;;;24.50;59.10;;;24.72;41.52;98529.34;4944429;28;20467;-70
2023/08/11 09:56:11;;;;;;;3.83;2.40;;;24.50;58.60;;;24.85;41.35;98528.66;4951633;28;20552;-70
2023/08/11 09:58:40;;;;;;;2.93;2.73;;;24.50;58.50;;;24.93;41.24;98526.31;4969600;28;20497;-70
2023/08/11 10:01:10;;;;;;;2.90;2.70;;;24.60;58.40;;;24.90;41.03;98523.03;4938841;29;21024;-68
2023/08/11 10:03:43;;;;;;;2.80;2.60;;;24.70;58.50;;;24.77;41.62;98536.78;4949222;29;20493;-70
2023/08/11 10:06:16;;;;;;;3.20;2.97;;;24.60;58.30;;;24.99;40.91;98522.38;4950571;29;20504;-70
2023/08/11 10:08:44;;;;;;;3.20;2.30;;;24.70;58.40;;;24.93;40.79;98526.31;4944703;29;20466;-70
2023/08/11 10:11:12;;;;;;;4.60;2.80;;;24.80;57.80;;;25.17;41.32;98524.31;4947133;28;20471;-72
2023/08/11 10:13:40;;;;;;;2.83;2.63;;;24.80;58.20;;;25.17;41.07;98523.47;4943879;29;20746;-69
2023/08/11 10:16:12;;;;;;;2.10;2.00;;;24.90;58.20;;;24.88;41.46;98522.50;4965342;28;20466;-69
2023/08/11 10:18:41;;;;;;;4.10;2.47;;;25.00;58.00;;;25.15;41.15;98521.03;4943870;28;20461;-71
2023/08/11 10:21:08;;;;;;;2.77;2.57;;;25.00;58.10;;;25.31;40.02;98531.84;4935207;29;20472;-69